sensor_id;sensor_type;location;lat;lon;timestamp;pressure;altitude;pressure_sealevel;temperature;humidity
24620;BME280;12763;55.802;37.404;2023-03-26T00:00:05;98140.88;;;10.89;100.00
24620;BME280;12763;55.802;37.404;2023-03-26T00:02:38;98134.28;;;10.90;100.00
24620;BME280;12763;55.802;37.404;2023-03-26T00:05:05;98134.53;;;10.88;100.00
24620;BME280;12763;55.802;37.404;2023-03-26T00:07:31;98139.81;;;10.90;100.00
24620;BME280;12763;55.802;37.404;2023-03-26T00:09:57;98139.81;;;10.90;100.00
24620;BME280;12763;55.802;37.404;2023-03-26T00:12:24;98138.19;;;10.94;100.00
24620;BME280;12763;55.802;37.404;2023-03-26T00:14:50;98132.50;;;11.00;100.00
24620;BME280;12763;55.802;37.404;2023-03-26T00:17:17;98139.94;;;11.00;100.00
24620;BME280;12763;55.802;37.404;2023-03-26T00:20:02;98141.97;;;10.88;100.00
24620;BME280;12763;55.802;37.404;2023-03-26T00:22:28;98132.59;;;10.89;100.00
24620;BME280;12763;55.802;37.404;2023-03-26T00:25:13;98138.34;;;10.66;100.00
24620;BME280;12763;55.802;37.404;2023-03-26T00:27:57;98136.00;;;10.74;100.00
24620;BME280;12763;55.802;37.404;2023-03-26T00:30:23;98135.16;;;10.74;100.00
24620;BME280;12763;55.802;37.404;2023-03-26T00:32:49;98136.31;;;10.78;100.00
24620;BME280;12763;55.802;37.404;2023-03-26T00:35:15;98138.81;;;10.79;100.00
24620;BME280;12763;55.802;37.404;2023-03-26T00:37:41;98137.47;;;10.82;100.00
24620;BME280;12763;55.802;37.404;2023-03-26T00:40:08;98133.09;;;10.86;100.00
24620;BME280;12763;55.802;37.404;2023-03-26T00:42:36;98130.34;;;10.86;100.00
24620;BME280;12763;55.802;37.404;2023-03-26T00:45:06;98138.31;;;10.82;100.00
24620;BME280;12763;55.802;37.404;2023-03-26T00:48:09;98127.44;;;10.76;100.00
24620;BME280;12763;55.802;37.404;2023-03-26T00:50:34;98125.13;;;10.68;100.00
24620;BME280;12763;55.802;37.404;2023-03-26T00:55:46;98116.16;;;10.77;100.00
24620;BME280;12763;55.802;37.404;2023-03-26T00:58:12;98111.16;;;10.74;100.00
24620;BME280;12763;55.802;37.404;2023-03-26T01:00:58;98116.47;;;10.81;100.00
24620;BME280;12763;55.802;37.404;2023-03-26T01:03:25;98106.13;;;10.88;100.00
24620;BME280;12763;55.802;37.404;2023-03-26T01:05:57;98107.13;;;10.82;100.00
24620;BME280;12763;55.802;37.404;2023-03-26T01:08:31;98112.59;;;10.77;100.00
24620;BME280;12763;55.802;37.404;2023-03-26T01:11:00;98107.88;;;10.77;100.00
24620;BME280;12763;55.802;37.404;2023-03-26T01:13:35;98110.06;;;10.75;100.00
24620;BME280;12763;55.802;37.404;2023-03-26T01:18:47;98103.88;;;10.85;100.00
24620;BME280;12763;55.802;37.404;2023-03-26T01:21:17;98110.38;;;10.79;100.00
24620;BME280;12763;55.802;37.404;2023-03-26T01:24:20;98104.88;;;10.79;100.00
24620;BME280;12763;55.802;37.404;2023-03-26T01:35:10;98101.69;;;10.87;100.00
24620;BME280;12763;55.802;37.404;2023-03-26T01:40:34;98096.31;;;10.80;100.00
24620;BME280;12763;55.802;37.404;2023-03-26T01:45:48;98094.34;;;10.76;100.00
24620;BME280;12763;55.802;37.404;2023-03-26T01:48:36;98095.69;;;10.73;100.00
24620;BME280;12763;55.802;37.404;2023-03-26T01:51:31;98094.72;;;10.63;100.00
24620;BME280;12763;55.802;37.404;2023-03-26T01:57:04;98094.03;;;10.55;100.00
24620;BME280;12763;55.802;37.404;2023-03-26T02:00:09;98093.31;;;10.60;100.00
24620;BME280;12763;55.802;37.404;2023-03-26T02:02:56;98085.84;;;10.60;100.00
24620;BME280;12763;55.802;37.404;2023-03-26T02:05:33;98090.13;;;10.51;100.00
24620;BME280;12763;55.802;37.404;2023-03-26T02:08:09;98093.53;;;10.58;100.00
24620;BME280;12763;55.802;37.404;2023-03-26T02:10:44;98090.72;;;10.53;100.00
24620;BME280;12763;55.802;37.404;2023-03-26T02:13:11;98085.91;;;10.27;100.00
24620;BME280;12763;55.802;37.404;2023-03-26T02:15:57;98080.88;;;10.24;100.00
24620;BME280;12763;55.802;37.404;2023-03-26T02:24:00;98076.69;;;10.38;100.00
24620;BME280;12763;55.802;37.404;2023-03-26T02:29:36;98060.50;;;10.25;100.00
24620;BME280;12763;55.802;37.404;2023-03-26T02:32:08;98067.41;;;10.28;100.00
24620;BME280;12763;55.802;37.404;2023-03-26T02:34:38;98073.03;;;10.33;100.00
24620;BME280;12763;55.802;37.404;2023-03-26T02:37:05;98069.66;;;10.31;100.00
24620;BME280;12763;55.802;37.404;2023-03-26T02:39:31;98057.00;;;10.30;100.00
24620;BME280;12763;55.802;37.404;2023-03-26T02:42:02;98061.41;;;10.31;100.00
24620;BME280;12763;55.802;37.404;2023-03-26T02:44:31;98055.16;;;10.35;100.00
24620;BME280;12763;55.802;37.404;2023-03-26T02:46:57;98063.16;;;10.37;100.00
24620;BME280;12763;55.802;37.404;2023-03-26T02:49:41;98054.03;;;10.36;100.00
24620;BME280;12763;55.802;37.404;2023-03-26T02:52:08;98056.31;;;10.39;100.00
24620;BME280;12763;55.802;37.404;2023-03-26T02:54:35;98048.59;;;10.41;100.00
24620;BME280;12763;55.802;37.404;2023-03-26T02:57:07;98058.56;;;10.42;100.00
24620;BME280;12763;55.802;37.404;2023-03-26T02:59:51;98054.03;;;10.36;100.00
24620;BME280;12763;55.802;37.404;2023-03-26T03:02:49;98048.78;;;10.35;100.00
24620;BME280;12763;55.802;37.404;2023-03-26T03:05:35;98051.88;;;10.38;100.00
24620;BME280;12763;55.802;37.404;2023-03-26T03:08:20;98047.44;;;10.37;100.00
24620;BME280;12763;55.802;37.404;2023-03-26T03:11:17;98038.28;;;10.32;100.00
24620;BME280;12763;55.802;37.404;2023-03-26T03:13:50;98031.97;;;10.36;100.00
24620;BME280;12763;55.802;37.404;2023-03-26T03:16:22;98029.81;;;10.38;100.00
24620;BME280;12763;55.802;37.404;2023-03-26T03:18:48;98030.41;;;10.40;100.00
24620;BME280;12763;55.802;37.404;2023-03-26T03:21:37;98019.63;;;10.39;100.00
24620;BME280;12763;55.802;37.404;2023-03-26T03:24:22;98020.97;;;10.36;100.00
24620;BME280;12763;55.802;37.404;2023-03-26T03:27:06;98018.72;;;10.33;100.00
24620;BME280;12763;55.802;37.404;2023-03-26T03:29:37;98017.13;;;10.37;100.00
24620;BME280;12763;55.802;37.404;2023-03-26T03:32:22;98019.38;;;10.40;100.00
24620;BME280;12763;55.802;37.404;2023-03-26T03:34:49;98022.19;;;10.45;100.00
24620;BME280;12763;55.802;37.404;2023-03-26T03:37:17;98018.66;;;10.50;100.00
24620;BME280;12763;55.802;37.404;2023-03-26T03:39:49;98013.16;;;10.50;100.00
24620;BME280;12763;55.802;37.404;2023-03-26T03:42:18;98010.47;;;10.55;100.00
24620;BME280;12763;55.802;37.404;2023-03-26T03:44:44;98006.38;;;10.57;100.00
24620;BME280;12763;55.802;37.404;2023-03-26T03:50:32;97987.72;;;10.65;100.00
24620;BME280;12763;55.802;37.404;2023-03-26T03:53:22;97991.88;;;10.67;100.00
24620;BME280;12763;55.802;37.404;2023-03-26T03:55:52;97987.19;;;10.68;100.00
24620;BME280;12763;55.802;37.404;2023-03-26T03:58:24;97995.53;;;10.73;100.00
24620;BME280;12763;55.802;37.404;2023-03-26T04:01:28;97981.50;;;10.74;100.00
24620;BME280;12763;55.802;37.404;2023-03-26T04:04:03;97986.19;;;10.74;100.00
24620;BME280;12763;55.802;37.404;2023-03-26T04:06:52;97979.31;;;10.76;100.00
24620;BME280;12763;55.802;37.404;2023-03-26T04:09:19;97981.22;;;10.76;100.00
24620;BME280;12763;55.802;37.404;2023-03-26T04:11:46;97984.56;;;10.78;100.00
24620;BME280;12763;55.802;37.404;2023-03-26T04:14:30;97981.28;;;10.81;100.00
24620;BME280;12763;55.802;37.404;2023-03-26T04:17:02;97986.25;;;10.79;100.00
24620;BME280;12763;55.802;37.404;2023-03-26T04:19:32;97975.25;;;10.84;100.00
24620;BME280;12763;55.802;37.404;2023-03-26T04:22:17;97972.38;;;10.95;100.00
24620;BME280;12763;55.802;37.404;2023-03-26T04:24:54;97970.34;;;10.91;100.00
24620;BME280;12763;55.802;37.404;2023-03-26T04:27:39;97961.66;;;10.99;100.00
24620;BME280;12763;55.802;37.404;2023-03-26T04:30:20;97966.56;;;10.97;100.00
24620;BME280;12763;55.802;37.404;2023-03-26T04:32:52;97957.47;;;10.96;100.00
24620;BME280;12763;55.802;37.404;2023-03-26T04:35:22;97963.28;;;11.00;100.00
24620;BME280;12763;55.802;37.404;2023-03-26T04:37:53;97955.53;;;10.97;100.00
24620;BME280;12763;55.802;37.404;2023-03-26T04:40:26;97958.28;;;10.97;100.00
24620;BME280;12763;55.802;37.404;2023-03-26T04:43:13;97956.47;;;11.07;100.00
24620;BME280;12763;55.802;37.404;2023-03-26T04:46:04;97944.09;;;11.10;100.00
24620;BME280;12763;55.802;37.404;2023-03-26T04:51:25;97932.06;;;11.21;100.00
24620;BME280;12763;55.802;37.404;2023-03-26T04:53:53;97942.56;;;11.24;100.00
24620;BME280;12763;55.802;37.404;2023-03-26T04:59:34;97931.00;;;11.27;100.00
24620;BME280;12763;55.802;37.404;2023-03-26T05:02:06;97933.84;;;11.32;100.00
24620;BME280;12763;55.802;37.404;2023-03-26T05:04:45;97931.63;;;11.34;100.00
24620;BME280;12763;55.802;37.404;2023-03-26T05:07:18;97926.22;;;11.49;100.00
24620;BME280;12763;55.802;37.404;2023-03-26T05:09:48;97929.00;;;11.49;100.00
24620;BME280;12763;55.802;37.404;2023-03-26T05:12:32;97932.03;;;11.48;100.00
24620;BME280;12763;55.802;37.404;2023-03-26T05:15:04;97921.03;;;11.21;100.00
24620;BME280;12763;55.802;37.404;2023-03-26T05:17:48;97931.44;;;11.14;100.00
24620;BME280;12763;55.802;37.404;2023-03-26T05:20:28;97921.69;;;11.33;100.00
24620;BME280;12763;55.802;37.404;2023-03-26T05:23:13;97926.19;;;11.44;100.00
24620;BME280;12763;55.802;37.404;2023-03-26T05:26:05;97926.00;;;11.51;100.00
24620;BME280;12763;55.802;37.404;2023-03-26T05:31:42;97934.03;;;11.57;100.00
24620;BME280;12763;55.802;37.404;2023-03-26T05:34:09;97929.09;;;11.59;100.00
24620;BME280;12763;55.802;37.404;2023-03-26T05:36:35;97925.53;;;11.64;100.00
24620;BME280;12763;55.802;37.404;2023-03-26T05:39:19;97920.84;;;11.64;100.00
24620;BME280;12763;55.802;37.404;2023-03-26T05:42:10;97927.00;;;11.71;100.00
24620;BME280;12763;55.802;37.404;2023-03-26T05:45:01;97921.47;;;11.71;100.00
24620;BME280;12763;55.802;37.404;2023-03-26T05:47:29;97930.25;;;11.68;100.00
24620;BME280;12763;55.802;37.404;2023-03-26T05:49:55;97921.38;;;11.61;100.00
24620;BME280;12763;55.802;37.404;2023-03-26T05:52:22;97922.50;;;11.65;100.00
24620;BME280;12763;55.802;37.404;2023-03-26T05:55:08;97921.69;;;11.65;100.00
24620;BME280;12763;55.802;37.404;2023-03-26T05:58:11;97914.31;;;11.70;100.00
24620;BME280;12763;55.802;37.404;2023-03-26T06:01:11;97917.63;;;11.72;100.00
24620;BME280;12763;55.802;37.404;2023-03-26T06:04:19;97914.03;;;11.40;100.00
24620;BME280;12763;55.802;37.404;2023-03-26T06:07:04;97910.19;;;11.14;100.00
24620;BME280;12763;55.802;37.404;2023-03-26T06:09:35;97900.28;;;11.50;100.00
24620;BME280;12763;55.802;37.404;2023-03-26T06:12:07;97902.00;;;11.56;100.00
24620;BME280;12763;55.802;37.404;2023-03-26T06:14:33;97891.03;;;11.66;100.00
24620;BME280;12763;55.802;37.404;2023-03-26T06:17:09;97884.50;;;11.77;100.00
24620;BME280;12763;55.802;37.404;2023-03-26T06:19:55;97887.03;;;11.84;100.00
24620;BME280;12763;55.802;37.404;2023-03-26T06:22:33;97879.63;;;11.90;100.00
24620;BME280;12763;55.802;37.404;2023-03-26T06:28:33;97877.22;;;12.08;100.00
24620;BME280;12763;55.802;37.404;2023-03-26T06:31:40;97874.50;;;12.18;100.00
24620;BME280;12763;55.802;37.404;2023-03-26T06:34:34;97871.88;;;11.87;100.00
24620;BME280;12763;55.802;37.404;2023-03-26T06:37:00;97863.31;;;11.93;100.00
24620;BME280;12763;55.802;37.404;2023-03-26T06:39:26;97864.97;;;11.89;100.00
24620;BME280;12763;55.802;37.404;2023-03-26T06:42:07;97852.06;;;12.05;100.00
24620;BME280;12763;55.802;37.404;2023-03-26T06:44:59;97854.84;;;12.10;100.00
24620;BME280;12763;55.802;37.404;2023-03-26T06:47:31;97860.66;;;12.08;100.00
24620;BME280;12763;55.802;37.404;2023-03-26T06:50:36;97858.81;;;12.29;100.00
24620;BME280;12763;55.802;37.404;2023-03-26T06:53:11;97852.19;;;12.30;100.00
24620;BME280;12763;55.802;37.404;2023-03-26T06:55:53;97853.78;;;12.21;100.00
24620;BME280;12763;55.802;37.404;2023-03-26T06:58:37;97857.16;;;12.28;100.00
24620;BME280;12763;55.802;37.404;2023-03-26T07:01:22;97848.31;;;12.31;100.00
24620;BME280;12763;55.802;37.404;2023-03-26T07:04:06;97858.00;;;12.28;100.00
24620;BME280;12763;55.802;37.404;2023-03-26T07:06:50;97841.66;;;12.27;100.00
24620;BME280;12763;55.802;37.404;2023-03-26T07:09:34;97845.53;;;12.26;100.00
24620;BME280;12763;55.802;37.404;2023-03-26T07:12:00;97834.50;;;12.31;100.00
24620;BME280;12763;55.802;37.404;2023-03-26T07:14:44;97835.59;;;12.30;100.00
24620;BME280;12763;55.802;37.404;2023-03-26T07:17:33;97835.06;;;12.38;100.00
24620;BME280;12763;55.802;37.404;2023-03-26T07:20:07;97820.69;;;12.46;100.00
24620;BME280;12763;55.802;37.404;2023-03-26T07:23:29;97819.00;;;12.30;100.00
24620;BME280;12763;55.802;37.404;2023-03-26T07:26:24;97818.44;;;12.23;100.00
24620;BME280;12763;55.802;37.404;2023-03-26T07:29:29;97817.25;;;12.09;100.00
24620;BME280;12763;55.802;37.404;2023-03-26T07:38:56;97807.47;;;11.86;100.00
24620;BME280;12763;55.802;37.404;2023-03-26T07:41:56;97800.03;;;11.92;100.00
24620;BME280;12763;55.802;37.404;2023-03-26T07:47:40;97803.16;;;11.63;100.00
24620;BME280;12763;55.802;37.404;2023-03-26T07:50:23;97799.72;;;11.83;100.00
24620;BME280;12763;55.802;37.404;2023-03-26T07:53:08;97790.47;;;11.62;100.00
24620;BME280;12763;55.802;37.404;2023-03-26T07:56:14;97793.31;;;11.77;100.00
24620;BME280;12763;55.802;37.404;2023-03-26T08:07:51;97770.19;;;11.94;100.00
24620;BME280;12763;55.802;37.404;2023-03-26T08:13:53;97771.78;;;11.79;100.00
24620;BME280;12763;55.802;37.404;2023-03-26T08:16:33;97769.53;;;11.76;100.00
24620;BME280;12763;55.802;37.404;2023-03-26T08:25:19;97766.97;;;11.65;100.00
24620;BME280;12763;55.802;37.404;2023-03-26T08:28:05;97762.06;;;11.72;100.00
24620;BME280;12763;55.802;37.404;2023-03-26T08:30:35;97762.91;;;11.72;100.00
24620;BME280;12763;55.802;37.404;2023-03-26T08:35:35;97758.41;;;11.66;100.00
24620;BME280;12763;55.802;37.404;2023-03-26T08:38:17;97744.41;;;11.78;100.00
24620;BME280;12763;55.802;37.404;2023-03-26T08:49:49;97725.09;;;11.83;100.00
24620;BME280;12763;55.802;37.404;2023-03-26T08:58:35;97718.03;;;11.60;100.00
24620;BME280;12763;55.802;37.404;2023-03-26T09:04:20;97718.88;;;11.56;100.00
24620;BME280;12763;55.802;37.404;2023-03-26T09:07:17;97701.81;;;11.69;100.00
24620;BME280;12763;55.802;37.404;2023-03-26T09:15:45;97705.09;;;11.66;100.00
24620;BME280;12763;55.802;37.404;2023-03-26T09:21:08;97696.56;;;11.67;100.00
24620;BME280;12763;55.802;37.404;2023-03-26T09:38:10;97696.44;;;11.47;100.00
24620;BME280;12763;55.802;37.404;2023-03-26T09:40:42;97702.50;;;11.44;100.00
24620;BME280;12763;55.802;37.404;2023-03-26T10:11:30;97668.81;;;11.47;100.00
24620;BME280;12763;55.802;37.404;2023-03-26T10:17:41;97664.34;;;11.31;100.00
24620;BME280;12763;55.802;37.404;2023-03-26T10:26:26;97650.41;;;11.68;100.00
24620;BME280;12763;55.802;37.404;2023-03-26T10:32:25;97647.91;;;11.61;100.00
24620;BME280;12763;55.802;37.404;2023-03-26T10:35:07;97649.50;;;11.52;100.00
24620;BME280;12763;55.802;37.404;2023-03-26T10:38:11;97646.75;;;11.47;100.00
24620;BME280;12763;55.802;37.404;2023-03-26T10:43:25;97639.00;;;11.54;100.00
24620;BME280;12763;55.802;37.404;2023-03-26T10:51:45;97635.47;;;11.59;100.00
24620;BME280;12763;55.802;37.404;2023-03-26T10:56:51;97626.31;;;11.53;100.00
24620;BME280;12763;55.802;37.404;2023-03-26T10:59:19;97629.38;;;11.57;100.00
24620;BME280;12763;55.802;37.404;2023-03-26T11:02:05;97625.53;;;11.63;100.00
24620;BME280;12763;55.802;37.404;2023-03-26T11:10:04;97626.56;;;11.47;100.00
24620;BME280;12763;55.802;37.404;2023-03-26T11:12:39;97632.41;;;11.55;100.00
24620;BME280;12763;55.802;37.404;2023-03-26T11:15:15;97631.31;;;11.61;100.00
24620;BME280;12763;55.802;37.404;2023-03-26T11:21:25;97621.66;;;11.64;100.00
24620;BME280;12763;55.802;37.404;2023-03-26T11:29:16;97624.72;;;11.67;100.00
24620;BME280;12763;55.802;37.404;2023-03-26T11:34:19;97617.56;;;11.76;100.00
24620;BME280;12763;55.802;37.404;2023-03-26T11:36:53;97621.19;;;11.77;100.00
24620;BME280;12763;55.802;37.404;2023-03-26T11:39:28;97618.34;;;11.62;100.00
24620;BME280;12763;55.802;37.404;2023-03-26T11:42:05;97624.72;;;11.67;100.00
24620;BME280;12763;55.802;37.404;2023-03-26T11:44:45;97618.28;;;11.47;100.00
24620;BME280;12763;55.802;37.404;2023-03-26T11:47:14;97618.00;;;11.43;100.00
24620;BME280;12763;55.802;37.404;2023-03-26T11:49:46;97614.03;;;11.24;100.00
24620;BME280;12763;55.802;37.404;2023-03-26T11:52:15;97609.94;;;11.32;100.00
24620;BME280;12763;55.802;37.404;2023-03-26T11:54:42;97620.13;;;11.21;100.00
24620;BME280;12763;55.802;37.404;2023-03-26T11:57:21;97612.19;;;11.40;100.00
24620;BME280;12763;55.802;37.404;2023-03-26T11:59:55;97606.16;;;11.48;100.00
24620;BME280;12763;55.802;37.404;2023-03-26T12:02:30;97605.84;;;11.44;100.00
24620;BME280;12763;55.802;37.404;2023-03-26T12:05:20;97601.34;;;11.18;100.00
24620;BME280;12763;55.802;37.404;2023-03-26T12:07:54;97602.78;;;11.36;100.00
24620;BME280;12763;55.802;37.404;2023-03-26T12:12:55;97601.38;;;11.28;100.00
24620;BME280;12763;55.802;37.404;2023-03-26T12:15:23;97604.03;;;11.08;100.00
24620;BME280;12763;55.802;37.404;2023-03-26T12:17:52;97601.59;;;11.16;100.00
24620;BME280;12763;55.802;37.404;2023-03-26T12:20:41;97596.69;;;11.34;100.00
24620;BME280;12763;55.802;37.404;2023-03-26T12:23:34;97590.44;;;11.58;100.00
24620;BME280;12763;55.802;37.404;2023-03-26T12:26:11;97589.56;;;11.38;100.00
24620;BME280;12763;55.802;37.404;2023-03-26T12:28:45;97593.16;;;11.43;100.00
24620;BME280;12763;55.802;37.404;2023-03-26T12:31:12;97590.84;;;11.15;100.00
24620;BME280;12763;55.802;37.404;2023-03-26T12:34:03;97589.28;;;11.44;100.00
24620;BME280;12763;55.802;37.404;2023-03-26T12:36:32;97584.28;;;11.31;100.00
24620;BME280;12763;55.802;37.404;2023-03-26T12:39:01;97569.31;;;11.17;100.00
24620;BME280;12763;55.802;37.404;2023-03-26T12:41:36;97578.75;;;11.31;100.00
24620;BME280;12763;55.802;37.404;2023-03-26T12:46:49;97575.38;;;11.24;100.00
24620;BME280;12763;55.802;37.404;2023-03-26T12:49:19;97568.41;;;11.01;100.00
24620;BME280;12763;55.802;37.404;2023-03-26T12:52:14;97574.00;;;11.21;100.00
24620;BME280;12763;55.802;37.404;2023-03-26T12:58:01;97570.44;;;11.26;100.00
24620;BME280;12763;55.802;37.404;2023-03-26T13:06:38;97571.56;;;11.30;100.00
24620;BME280;12763;55.802;37.404;2023-03-26T13:09:20;97574.31;;;11.25;100.00
24620;BME280;12763;55.802;37.404;2023-03-26T13:20:26;97569.31;;;11.17;100.00
24620;BME280;12763;55.802;37.404;2023-03-26T13:26:01;97573.44;;;11.14;100.00
24620;BME280;12763;55.802;37.404;2023-03-26T13:29:04;97570.91;;;11.08;100.00
24620;BME280;12763;55.802;37.404;2023-03-26T13:37:09;97563.47;;;11.08;100.00
24620;BME280;12763;55.802;37.404;2023-03-26T13:40:09;97564.84;;;11.06;100.00
24620;BME280;12763;55.802;37.404;2023-03-26T13:48:26;97559.06;;;11.12;100.00
24620;BME280;12763;55.802;37.404;2023-03-26T13:51:17;97556.56;;;11.11;100.00
24620;BME280;12763;55.802;37.404;2023-03-26T13:54:08;97559.28;;;11.01;100.00
24620;BME280;12763;55.802;37.404;2023-03-26T13:56:45;97557.81;;;10.83;100.00
24620;BME280;12763;55.802;37.404;2023-03-26T13:59:19;97555.94;;;10.94;100.00
24620;BME280;12763;55.802;37.404;2023-03-26T14:01:53;97552.91;;;10.95;100.00
24620;BME280;12763;55.802;37.404;2023-03-26T14:04:43;97556.31;;;11.12;100.00
24620;BME280;12763;55.802;37.404;2023-03-26T14:07:16;97556.28;;;11.07;100.00
24620;BME280;12763;55.802;37.404;2023-03-26T14:12:43;97555.16;;;10.98;100.00
24620;BME280;12763;55.802;37.404;2023-03-26T14:15:22;97551.31;;;11.04;100.00
24620;BME280;12763;55.802;37.404;2023-03-26T14:18:02;97562.34;;;11.04;100.00
24620;BME280;12763;55.802;37.404;2023-03-26T14:31:35;97562.09;;;11.11;100.00
24620;BME280;12763;55.802;37.404;2023-03-26T14:34:44;97562.28;;;10.89;100.00
24620;BME280;12763;55.802;37.404;2023-03-26T14:43:13;97557.91;;;10.98;100.00
24620;BME280;12763;55.802;37.404;2023-03-26T14:51:13;97559.06;;;11.12;100.00
24620;BME280;12763;55.802;37.404;2023-03-26T14:53:48;97566.50;;;11.07;100.00
24620;BME280;12763;55.802;37.404;2023-03-26T14:56:30;97554.28;;;10.88;100.00
24620;BME280;12763;55.802;37.404;2023-03-26T15:11:07;97551.97;;;10.75;100.00
24620;BME280;12763;55.802;37.404;2023-03-26T15:13:43;97551.03;;;11.01;100.00
24620;BME280;12763;55.802;37.404;2023-03-26T15:57:41;97558.84;;;10.72;100.00
24620;BME280;12763;55.802;37.404;2023-03-26T16:00:17;97556.47;;;10.91;100.00
24620;BME280;12763;55.802;37.404;2023-03-26T16:03:23;97564.19;;;10.89;100.00
24620;BME280;12763;55.802;37.404;2023-03-26T16:06:35;97551.78;;;10.91;100.00
24620;BME280;12763;55.802;37.404;2023-03-26T16:11:58;97558.00;;;10.67;100.00
24620;BME280;12763;55.802;37.404;2023-03-26T16:17:01;97554.22;;;10.83;100.00
24620;BME280;12763;55.802;37.404;2023-03-26T16:22:10;97564.50;;;10.50;100.00
24620;BME280;12763;55.802;37.404;2023-03-26T16:24:44;97562.44;;;10.68;100.00
24620;BME280;12763;55.802;37.404;2023-03-26T16:32:35;97565.22;;;10.73;100.00
24620;BME280;12763;55.802;37.404;2023-03-26T16:37:47;97561.88;;;10.66;100.00
24620;BME280;12763;55.802;37.404;2023-03-26T16:40:27;97546.41;;;10.65;100.00
24620;BME280;12763;55.802;37.404;2023-03-26T16:46:01;97557.44;;;10.65;100.00
24620;BME280;12763;55.802;37.404;2023-03-26T16:48:56;97570.16;;;10.66;100.00
24620;BME280;12763;55.802;37.404;2023-03-26T16:57:26;97558.63;;;10.79;100.00
24620;BME280;12763;55.802;37.404;2023-03-26T17:03:08;97573.97;;;10.59;100.00
24620;BME280;12763;55.802;37.404;2023-03-26T17:08:45;97567.84;;;10.52;100.00
24620;BME280;12763;55.802;37.404;2023-03-26T17:11:39;97571.22;;;10.59;100.00
24620;BME280;12763;55.802;37.404;2023-03-26T17:19:39;97575.69;;;10.71;100.00
24620;BME280;12763;55.802;37.404;2023-03-26T17:22:33;97575.56;;;10.55;100.00
24620;BME280;12763;55.802;37.404;2023-03-26T17:25:55;97576.84;;;10.80;100.00
24620;BME280;12763;55.802;37.404;2023-03-26T17:32:10;97574.56;;;10.72;100.00
24620;BME280;12763;55.802;37.404;2023-03-26T17:34:41;97572.31;;;10.63;100.00
24620;BME280;12763;55.802;37.404;2023-03-26T17:42:30;97571.22;;;10.59;100.00
24620;BME280;12763;55.802;37.404;2023-03-26T17:45:29;97576.25;;;10.73;100.00
24620;BME280;12763;55.802;37.404;2023-03-26T17:48:04;97572.41;;;10.74;100.00
24620;BME280;12763;55.802;37.404;2023-03-26T17:50:56;97573.31;;;10.47;100.00
24620;BME280;12763;55.802;37.404;2023-03-26T17:53:30;97576.19;;;10.63;100.00
24620;BME280;12763;55.802;37.404;2023-03-26T17:56:12;97569.63;;;10.69;100.00
24620;BME280;12763;55.802;37.404;2023-03-26T17:58:44;97573.97;;;10.59;100.00
24620;BME280;12763;55.802;37.404;2023-03-26T18:01:28;97578.00;;;10.47;100.00
24620;BME280;12763;55.802;37.404;2023-03-26T18:04:00;97578.78;;;10.37;100.00
24620;BME280;12763;55.802;37.404;2023-03-26T18:17:42;97580.78;;;10.15;100.00
24620;BME280;12763;55.802;37.404;2023-03-26T18:20:22;97571.97;;;10.13;100.00
24620;BME280;12763;55.802;37.404;2023-03-26T18:22:50;97578.09;;;10.25;100.00
24620;BME280;12763;55.802;37.404;2023-03-26T18:25:29;97569.63;;;10.32;100.00
24620;BME280;12763;55.802;37.404;2023-03-26T18:27:58;97558.03;;;10.30;100.00
24620;BME280;12763;55.802;37.404;2023-03-26T18:30:26;97567.00;;;10.15;100.00
24620;BME280;12763;55.802;37.404;2023-03-26T18:33:10;97568.44;;;10.23;100.00
24620;BME280;12763;55.802;37.404;2023-03-26T18:35:45;97567.25;;;10.45;100.00
24620;BME280;12763;55.802;37.404;2023-03-26T18:38:20;97565.00;;;10.42;100.00
24620;BME280;12763;55.802;37.404;2023-03-26T18:40:52;97562.53;;;10.09;100.00
24620;BME280;12763;55.802;37.404;2023-03-26T18:43:20;97580.28;;;10.18;100.00
24620;BME280;12763;55.802;37.404;2023-03-26T18:45:49;97562.69;;;10.24;100.00
24620;BME280;12763;55.802;37.404;2023-03-26T18:48:23;97564.94;;;10.32;100.00
24620;BME280;12763;55.802;37.404;2023-03-26T18:51:09;97562.59;;;10.14;100.00
24620;BME280;12763;55.802;37.404;2023-03-26T18:54:02;97577.34;;;10.03;100.00
24620;BME280;12763;55.802;37.404;2023-03-26T18:56:38;97580.91;;;9.72;100.00
24620;BME280;12763;55.802;37.404;2023-03-26T18:59:06;97577.22;;;9.88;100.00
24620;BME280;12763;55.802;37.404;2023-03-26T19:01:46;97569.03;;;9.98;100.00
24620;BME280;12763;55.802;37.404;2023-03-26T19:04:16;97578.28;;;9.55;100.00
24620;BME280;12763;55.802;37.404;2023-03-26T19:06:43;97582.72;;;9.61;100.00
24620;BME280;12763;55.802;37.404;2023-03-26T19:09:11;97581.69;;;9.40;100.00
24620;BME280;12763;55.802;37.404;2023-03-26T19:11:40;97581.47;;;9.74;100.00
24620;BME280;12763;55.802;37.404;2023-03-26T19:14:14;97583.69;;;9.50;100.00
24620;BME280;12763;55.802;37.404;2023-03-26T19:16:47;97588.84;;;9.20;100.00
24620;BME280;12763;55.802;37.404;2023-03-26T19:19:19;97589.56;;;9.10;100.00
24620;BME280;12763;55.802;37.404;2023-03-26T19:21:48;97592.88;;;9.12;100.00
24620;BME280;12763;55.802;37.404;2023-03-26T19:24:17;97591.34;;;9.21;100.00
24620;BME280;12763;55.802;37.404;2023-03-26T19:26:44;97586.59;;;8.95;100.00
24620;BME280;12763;55.802;37.404;2023-03-26T19:29:14;97587.81;;;8.82;100.00
24620;BME280;12763;55.802;37.404;2023-03-26T19:31:42;97593.78;;;8.58;100.00
24620;BME280;12763;55.802;37.404;2023-03-26T19:36:53;97584.06;;;8.89;100.00